Big John — WDE3426 — position and weather

sailwx.info

Track history (hours):
 
Tides and Currents Weather Stations Pressure Air Temp Water Temp Dewpoint Dewpoint Depression Visibility Wind Speed Wind Dir Waves Ship Positions

Big John

Owner: Big F Marine, Arnaudville, LA. More information available from US FCC via Universal Licensing System and Coast Guard Vessel Documentation Center.

Last reported at 2014-Oct-19 23:33 UTC. Time now 2014-Oct-22 22:30 UTC.
Position N 29°44' W 091°34'.

Type: Other ship. MMSI: 367338920.

Date/timePositionNaut miles runAvg speedWind from/ knotsBaromVisibWave heightAir tempDewpointWater temp
2014-Oct-19 23:33N 29°44' W 091°34'7 6.8
2014-Oct-19 22:33N 29°40' W 091°27'7 6.8
2014-Oct-19 21:33N 29°38' W 091°20'7 6.6
2014-Oct-19 20:33N 29°41' W 091°13'4 4.1
2014-Oct-19 19:33N 29°40' W 091°08'0 0.2
2014-Oct-19 18:33N 29°40' W 091°08'2 2.0
2014-Oct-19 17:32N 29°41' W 091°10'0 0.1
2014-Oct-19 16:32N 29°41' W 091°10'4 4.0
2014-Oct-19 15:33N 29°38' W 091°07'4 4.0
2014-Oct-19 14:33N 29°37' W 091°02'5 3.7
2014-Oct-19 13:13N 29°35' W 090°57'4 4.7
2014-Oct-19 12:23N 29°33' W 090°53'  
Track history (hours):
 
Tides and Currents Weather Stations Pressure Air Temp Water Temp Dewpoint Dewpoint Depression Visibility Wind Speed Wind Dir Waves Ship Positions

Big John

Owner: Big F Marine, Arnaudville, LA. More information available from US FCC via Universal Licensing System and Coast Guard Vessel Documentation Center.

Last reported at 2014-Oct-19 23:33 UTC. Time now 2014-Oct-22 22:30 UTC.
Position N 29°44' W 091°34'.

Type: Other ship. MMSI: 367338920.

Date/timePositionNaut miles runAvg speedWind from/ knotsBaromVisibWave heightAir tempDewpointWater temp
2014-Oct-19 23:33N 29°44' W 091°34'7 6.8
2014-Oct-19 22:33N 29°40' W 091°27'7 6.8
2014-Oct-19 21:33N 29°38' W 091°20'7 6.6
2014-Oct-19 20:33N 29°41' W 091°13'4 4.1
2014-Oct-19 19:33N 29°40' W 091°08'0 0.2
2014-Oct-19 18:33N 29°40' W 091°08'2 2.0
2014-Oct-19 17:32N 29°41' W 091°10'0 0.1
2014-Oct-19 16:32N 29°41' W 091°10'4 4.0
2014-Oct-19 15:33N 29°38' W 091°07'4 4.0
2014-Oct-19 14:33N 29°37' W 091°02'5 3.7
2014-Oct-19 13:13N 29°35' W 090°57'4 4.7
2014-Oct-19 12:23N 29°33' W 090°53'  

Dump ship's entire track history